createdAt,value
2022-11-10T00:00:18.570Z,87.96
2022-11-10T00:03:07.006Z,88.32
2022-11-10T00:05:53.828Z,87.86
2022-11-10T00:08:40.682Z,88.03
2022-11-10T00:11:27.821Z,88.04
2022-11-10T00:14:32.992Z,88.76
2022-11-10T00:17:20.560Z,88.55
2022-11-10T00:20:09.017Z,88.59
2022-11-10T00:22:57.299Z,88.29
2022-11-10T00:25:44.203Z,88.06
2022-11-10T00:28:33.234Z,88.94
2022-11-10T00:31:20.829Z,88.77
2022-11-10T00:34:11.988Z,89.19
2022-11-10T00:36:59.176Z,88.55
2022-11-10T00:39:46.078Z,89.10
2022-11-10T00:42:33.447Z,88.45
2022-11-10T00:45:20.434Z,89.05
2022-11-10T00:48:07.334Z,89.41
2022-11-10T00:50:54.648Z,89.26
2022-11-10T00:53:42.158Z,88.97
2022-11-10T00:56:29.666Z,89.17
2022-11-10T00:59:16.660Z,89.09
2022-11-10T01:02:03.808Z,88.97
2022-11-10T01:04:51.022Z,89.34
2022-11-10T01:07:37.942Z,88.94
2022-11-10T01:10:25.257Z,89.40
2022-11-10T01:13:12.097Z,89.54
2022-11-10T01:16:05.499Z,89.61
2022-11-10T01:18:54.274Z,89.10
2022-11-10T01:21:41.132Z,89.75
2022-11-10T01:24:30.480Z,89.26
2022-11-10T01:27:17.647Z,89.02
2022-11-10T01:30:05.823Z,89.27
2022-11-10T01:32:53.297Z,89.55
2022-11-10T01:35:41.018Z,89.56
2022-11-10T01:38:29.840Z,89.72
2022-11-10T01:41:17.315Z,89.52
2022-11-10T01:44:23.029Z,88.99
2022-11-10T01:47:10.108Z,90.06
2022-11-10T01:49:57.458Z,89.75
2022-11-10T01:52:47.935Z,89.46
2022-11-10T01:55:36.442Z,89.71
2022-11-10T01:58:31.523Z,89.82
2022-11-10T02:01:19.118Z,90.00
2022-11-10T02:04:14.118Z,90.13
2022-11-10T02:07:01.628Z,89.60
2022-11-10T02:09:48.985Z,89.70
2022-11-10T02:12:39.114Z,89.53
2022-11-10T02:15:26.771Z,89.86
2022-11-10T02:18:14.060Z,89.92
2022-11-10T02:21:04.817Z,89.97
2022-11-10T02:23:54.158Z,90.25
2022-11-10T02:26:54.694Z,90.16
2022-11-10T02:29:41.860Z,90.20
2022-11-10T02:32:29.531Z,89.93
2022-11-10T02:35:19.257Z,90.51
2022-11-10T02:38:06.657Z,90.46
2022-11-10T02:40:53.737Z,90.00
2022-11-10T02:43:41.058Z,90.23
2022-11-10T02:46:28.637Z,90.29
2022-11-10T02:49:16.558Z,90.59
2022-11-10T02:52:03.668Z,90.11
2022-11-10T02:54:50.337Z,90.53
2022-11-10T02:57:38.300Z,90.20
2022-11-10T03:00:25.637Z,90.58
2022-11-10T03:03:12.639Z,90.63
2022-11-10T03:06:00.161Z,90.62
2022-11-10T03:08:47.499Z,90.41
2022-11-10T03:11:34.414Z,89.89
2022-11-10T03:14:21.499Z,90.25
2022-11-10T03:17:08.786Z,90.53
2022-11-10T03:19:56.078Z,90.07
2022-11-10T03:22:45.950Z,89.95
2022-11-10T03:25:32.785Z,89.90
2022-11-10T03:28:19.992Z,90.13
2022-11-10T03:31:06.839Z,89.95
2022-11-10T03:33:54.372Z,89.86
2022-11-10T03:36:41.637Z,89.97
2022-11-10T03:39:28.800Z,89.44
2022-11-10T03:42:16.013Z,89.38
2022-11-10T03:45:02.603Z,89.50
2022-11-10T03:47:50.587Z,89.18
2022-11-10T03:50:37.565Z,89.94
2022-11-10T03:53:25.008Z,89.32
2022-11-10T03:56:12.933Z,89.25
2022-11-10T03:58:59.713Z,88.92
2022-11-10T04:01:47.028Z,88.90
2022-11-10T04:04:52.111Z,88.79
2022-11-10T04:07:57.343Z,88.89
2022-11-10T04:10:44.410Z,89.07
2022-11-10T04:13:51.968Z,89.17
2022-11-10T04:16:38.732Z,88.70
2022-11-10T04:19:26.948Z,88.46
2022-11-10T04:22:33.955Z,88.34
2022-11-10T04:25:20.654Z,88.06
2022-11-10T04:28:07.538Z,88.21
2022-11-10T04:30:54.851Z,88.12
2022-11-10T04:33:42.820Z,87.54
2022-11-10T04:36:32.120Z,87.59
2022-11-10T04:39:18.741Z,87.34
2022-11-10T04:42:06.298Z,87.61
2022-11-10T04:44:53.273Z,87.48
2022-11-10T04:47:40.102Z,87.22
2022-11-10T04:50:26.878Z,86.99
2022-11-10T04:53:13.857Z,86.93
2022-11-10T04:56:00.858Z,86.31
2022-11-10T04:58:48.452Z,86.12
2022-11-10T05:01:35.348Z,85.63
2022-11-10T05:04:21.883Z,85.83
2022-11-10T05:07:09.017Z,85.73
2022-11-10T05:09:55.933Z,85.71
2022-11-10T05:12:42.873Z,85.66
2022-11-10T05:15:33.833Z,85.53
2022-11-10T05:18:21.890Z,85.40
2022-11-10T05:21:08.711Z,85.41
2022-11-10T05:23:58.216Z,85.22
2022-11-10T05:26:45.521Z,85.04
2022-11-10T05:29:32.682Z,84.64
2022-11-10T05:32:19.776Z,84.26
2022-11-10T05:35:07.191Z,84.58
2022-11-10T05:37:54.161Z,84.70
2022-11-10T05:40:41.161Z,84.75
2022-11-10T05:43:28.249Z,84.86
2022-11-10T05:46:15.590Z,84.47
2022-11-10T05:49:02.242Z,84.18
2022-11-10T05:51:49.461Z,84.36
2022-11-10T05:54:36.600Z,84.25
2022-11-10T05:57:23.601Z,84.21
2022-11-10T06:00:11.803Z,83.85
2022-11-10T06:03:06.970Z,83.71
2022-11-10T06:05:54.255Z,83.84
2022-11-10T06:08:41.401Z,83.69
2022-11-10T06:11:28.284Z,83.40
2022-11-10T06:14:15.644Z,83.36
2022-11-10T06:17:02.362Z,83.21
2022-11-10T06:19:49.301Z,82.68
2022-11-10T06:22:36.813Z,82.86
2022-11-10T06:25:23.921Z,82.56
2022-11-10T06:28:10.781Z,82.54
2022-11-10T06:30:59.784Z,82.33
2022-11-10T06:33:47.684Z,82.20
2022-11-10T06:36:35.424Z,81.83
2022-11-10T06:39:22.661Z,82.12
2022-11-10T06:42:09.811Z,81.77
2022-11-10T06:44:56.881Z,81.71
2022-11-10T06:47:43.594Z,82.03
2022-11-10T06:50:30.542Z,81.17
2022-11-10T06:53:23.030Z,81.75
2022-11-10T06:56:14.110Z,81.71
2022-11-10T06:59:01.249Z,81.85
2022-11-10T07:01:49.617Z,81.59
2022-11-10T07:04:36.826Z,81.77
2022-11-10T07:07:23.894Z,81.62
2022-11-10T07:10:11.243Z,81.89
2022-11-10T07:12:59.211Z,82.12
2022-11-10T07:15:46.805Z,82.18
2022-11-10T07:18:33.842Z,82.17
2022-11-10T07:21:20.844Z,82.39
2022-11-10T07:24:08.301Z,82.53
2022-11-10T07:26:55.657Z,83.08
2022-11-10T07:29:42.997Z,83.17
2022-11-10T07:32:30.277Z,83.39
2022-11-10T07:35:17.294Z,83.09
2022-11-10T07:38:07.648Z,83.31
2022-11-10T07:40:55.678Z,83.25
2022-11-10T07:43:42.823Z,83.42
2022-11-10T07:46:30.544Z,83.26
2022-11-10T07:49:17.618Z,83.37
2022-11-10T07:52:04.477Z,83.41
2022-11-10T07:54:51.797Z,83.19
2022-11-10T07:57:39.039Z,83.40
2022-11-10T08:00:27.876Z,83.40
2022-11-10T08:03:17.796Z,83.65
2022-11-10T08:06:05.238Z,83.39
2022-11-10T08:08:55.337Z,83.77
2022-11-10T08:11:42.671Z,84.06
2022-11-10T08:14:29.742Z,83.82
2022-11-10T08:17:16.636Z,84.05
2022-11-10T08:20:05.497Z,84.21
2022-11-10T08:22:59.319Z,84.59
2022-11-10T08:25:47.615Z,84.70
2022-11-10T08:28:34.778Z,84.81
2022-11-10T08:31:21.661Z,85.46
2022-11-10T08:34:09.938Z,85.73
2022-11-10T08:36:57.004Z,86.06
2022-11-10T08:39:43.939Z,86.11
2022-11-10T08:42:30.737Z,86.10
2022-11-10T08:45:17.798Z,86.67
2022-11-10T08:48:10.408Z,86.78
2022-11-10T08:51:01.182Z,87.17
2022-11-10T08:53:48.398Z,87.03
2022-11-10T08:56:35.159Z,87.40
2022-11-10T08:59:22.377Z,87.58
2022-11-10T09:02:11.279Z,87.89
2022-11-10T09:04:58.289Z,88.20
2022-11-10T09:07:49.519Z,88.09
2022-11-10T09:10:45.255Z,88.35
2022-11-10T09:13:34.504Z,88.31
2022-11-10T09:16:21.912Z,88.18
2022-11-10T09:19:09.137Z,88.52
2022-11-10T09:21:56.267Z,88.57
2022-11-10T09:24:45.062Z,88.89
2022-11-10T09:27:38.921Z,88.67
2022-11-10T09:30:27.036Z,88.87
2022-11-10T09:33:14.455Z,88.97
2022-11-10T09:36:01.358Z,88.67
2022-11-10T09:38:48.455Z,89.16
2022-11-10T09:41:40.641Z,89.32
2022-11-10T09:44:47.430Z,89.23
2022-11-10T09:47:57.460Z,89.37
2022-11-10T09:50:54.053Z,89.21
2022-11-10T09:53:59.403Z,89.58
2022-11-10T09:56:46.481Z,89.15
2022-11-10T09:59:35.324Z,89.53
2022-11-10T10:02:34.826Z,89.29
2022-11-10T10:05:30.529Z,89.20
2022-11-10T10:08:45.268Z,89.54
2022-11-10T10:12:04.345Z,89.44
2022-11-10T10:15:12.418Z,89.57
2022-11-10T10:18:34.397Z,89.86
2022-11-10T10:21:41.216Z,89.89
2022-11-10T10:24:31.415Z,89.74
2022-11-10T10:27:24.779Z,89.90
2022-11-10T10:30:20.799Z,90.18
2022-11-10T10:33:20.717Z,90.07
2022-11-10T10:36:23.418Z,90.08
2022-11-10T10:39:19.054Z,90.06
2022-11-10T10:42:15.772Z,90.35
2022-11-10T10:45:18.864Z,90.07
2022-11-10T10:48:33.669Z,90.42
2022-11-10T10:51:30.973Z,90.33
2022-11-10T10:54:30.332Z,90.16
2022-11-10T10:57:31.657Z,90.12
2022-11-10T11:00:18.732Z,90.54
2022-11-10T11:03:27.575Z,90.26
2022-11-10T11:06:17.796Z,90.40
2022-11-10T11:09:11.006Z,90.63
2022-11-10T11:12:10.263Z,90.54
2022-11-10T11:15:23.742Z,90.68
2022-11-10T11:18:31.526Z,90.51
2022-11-10T11:21:38.624Z,90.52
2022-11-10T11:24:31.210Z,90.62
2022-11-10T11:27:45.767Z,90.60
2022-11-10T11:31:01.526Z,90.49
2022-11-10T11:34:03.877Z,90.37
2022-11-10T11:37:15.292Z,90.64
2022-11-10T11:40:25.662Z,90.54
2022-11-10T11:43:21.512Z,90.75
2022-11-10T11:46:19.459Z,90.60
2022-11-10T11:49:29.763Z,90.72
2022-11-10T11:52:36.336Z,90.65
2022-11-10T11:55:33.192Z,91.09
2022-11-10T11:58:23.097Z,91.03
2022-11-10T12:01:43.152Z,91.35
2022-11-10T12:04:45.296Z,91.18
2022-11-10T12:07:54.136Z,91.48
2022-11-10T12:10:44.227Z,91.15
2022-11-10T12:13:37.945Z,91.43
2022-11-10T12:16:30.943Z,91.51
2022-11-10T12:19:47.353Z,91.49
2022-11-10T12:23:00.475Z,91.73
2022-11-10T12:26:14.842Z,91.55
2022-11-10T12:29:30.689Z,91.55
2022-11-10T12:32:25.692Z,91.39
2022-11-10T12:35:20.592Z,91.71
2022-11-10T12:38:18.132Z,91.91
2022-11-10T12:41:16.433Z,91.82
2022-11-10T12:44:20.721Z,92.07
2022-11-10T12:47:12.983Z,91.90
2022-11-10T12:50:41.115Z,92.01
2022-11-10T12:53:32.744Z,92.10
2022-11-10T12:56:33.996Z,92.12
2022-11-10T12:59:23.495Z,92.11
2022-11-10T13:02:31.891Z,92.16
2022-11-10T13:05:29.572Z,92.50
2022-11-10T13:08:30.465Z,92.72
2022-11-10T13:11:19.564Z,92.32
2022-11-10T13:14:23.414Z,92.58
2022-11-10T13:17:32.240Z,92.77
2022-11-10T13:20:41.494Z,92.80
2022-11-10T13:23:58.466Z,92.57
2022-11-10T13:26:45.735Z,92.95
2022-11-10T13:29:45.112Z,93.18
2022-11-10T13:32:36.903Z,93.00
2022-11-10T13:35:30.207Z,92.95
2022-11-10T13:38:35.815Z,93.43
2022-11-10T13:41:28.374Z,93.66
2022-11-10T13:44:33.569Z,93.44
2022-11-10T13:47:51.564Z,93.63
2022-11-10T13:51:02.900Z,93.49
2022-11-10T13:54:08.355Z,93.61
2022-11-10T13:57:25.118Z,93.16
2022-11-10T14:00:15.546Z,93.53
2022-11-10T14:03:04.760Z,93.54
2022-11-10T14:06:04.152Z,93.55
2022-11-10T14:08:56.303Z,93.57
2022-11-10T14:12:05.156Z,93.65
2022-11-10T14:15:01.446Z,93.80
2022-11-10T14:17:54.214Z,93.90
2022-11-10T14:20:43.473Z,94.05
2022-11-10T14:23:52.297Z,93.98
2022-11-10T14:26:51.871Z,93.72
2022-11-10T14:29:40.720Z,94.02
2022-11-10T14:32:30.283Z,93.92
2022-11-10T14:35:47.932Z,93.86
2022-11-10T14:38:36.741Z,94.20
2022-11-10T14:41:24.287Z,94.07
2022-11-10T14:44:20.800Z,94.44
2022-11-10T14:47:16.559Z,94.29
2022-11-10T14:50:06.358Z,94.11
2022-11-10T14:52:58.647Z,94.19
2022-11-10T14:55:53.371Z,94.08
2022-11-10T14:58:44.992Z,94.44
2022-11-10T15:01:37.480Z,94.11
2022-11-10T15:04:33.768Z,94.41
2022-11-10T15:07:22.758Z,94.66
2022-11-10T15:10:18.911Z,94.55
2022-11-10T15:13:28.721Z,94.71
2022-11-10T15:16:39.309Z,94.33
2022-11-10T15:19:31.037Z,94.48
2022-11-10T15:22:30.349Z,94.76
2022-11-10T15:25:20.669Z,94.59
2022-11-10T15:28:24.454Z,94.40
2022-11-10T15:31:15.011Z,94.70
2022-11-10T15:34:04.936Z,94.51
2022-11-10T15:37:12.723Z,94.41
2022-11-10T15:40:31.965Z,94.59
2022-11-10T15:43:25.885Z,94.68
2022-11-10T15:46:20.753Z,94.72
2022-11-10T15:49:20.316Z,94.70
2022-11-10T15:52:13.130Z,94.69
2022-11-10T15:55:00.363Z,94.83
2022-11-10T15:57:47.532Z,95.27
2022-11-10T16:00:34.575Z,94.86
2022-11-10T16:03:24.290Z,95.01
2022-11-10T16:06:14.431Z,95.28
2022-11-10T16:09:01.979Z,95.13
2022-11-10T16:11:49.504Z,94.87
2022-11-10T16:14:37.215Z,95.17
2022-11-10T16:17:24.428Z,95.26
2022-11-10T16:20:15.927Z,95.15
2022-11-10T16:23:03.469Z,94.86
2022-11-10T16:25:52.910Z,94.82
2022-11-10T16:28:39.857Z,95.05
2022-11-10T16:31:28.661Z,95.30
2022-11-10T16:34:16.039Z,95.20
2022-11-10T16:37:03.678Z,95.39
2022-11-10T16:39:51.250Z,95.25
2022-11-10T16:42:38.370Z,95.10
2022-11-10T16:45:30.945Z,95.10
2022-11-10T16:48:22.815Z,95.24
2022-11-10T16:51:12.148Z,95.02
2022-11-10T16:54:00.402Z,94.93
2022-11-10T16:56:47.638Z,95.23
2022-11-10T16:59:34.881Z,94.87
2022-11-10T17:02:36.443Z,95.11
2022-11-10T17:05:23.386Z,95.20
2022-11-10T17:08:31.916Z,95.18
2022-11-10T17:11:19.849Z,94.74
2022-11-10T17:14:07.900Z,95.29
2022-11-10T17:16:56.946Z,95.13
2022-11-10T17:19:44.230Z,95.36
2022-11-10T17:22:34.447Z,95.22
2022-11-10T17:25:34.836Z,95.17
2022-11-10T17:28:22.096Z,95.12
2022-11-10T17:31:10.096Z,95.43
2022-11-10T17:33:59.994Z,95.36
2022-11-10T17:36:47.113Z,95.29
2022-11-10T17:39:34.758Z,95.33
2022-11-10T17:42:21.855Z,95.28
2022-11-10T17:45:20.794Z,95.26
2022-11-10T17:48:08.742Z,95.50
2022-11-10T17:50:57.165Z,95.35
2022-11-10T17:53:44.536Z,95.38
2022-11-10T17:56:33.864Z,95.49
2022-11-10T17:59:20.958Z,95.47
2022-11-10T18:02:12.552Z,95.23
2022-11-10T18:04:59.649Z,95.46
2022-11-10T18:07:52.901Z,95.46
2022-11-10T18:10:52.348Z,95.36
2022-11-10T18:13:42.955Z,94.97
2022-11-10T18:16:30.089Z,95.37
2022-11-10T18:19:16.825Z,95.31
2022-11-10T18:22:03.953Z,95.58
2022-11-10T18:24:51.599Z,95.48
2022-11-10T18:27:38.996Z,95.42
2022-11-10T18:30:29.822Z,95.87
2022-11-10T18:33:21.109Z,95.68
2022-11-10T18:36:09.454Z,95.56
2022-11-10T18:38:56.793Z,95.16
2022-11-10T18:41:49.739Z,95.29
2022-11-10T18:44:37.635Z,95.84
2022-11-10T18:47:24.845Z,95.48
2022-11-10T18:50:11.836Z,95.33
2022-11-10T18:52:58.973Z,95.54
2022-11-10T18:55:55.638Z,95.49
2022-11-10T18:58:43.800Z,95.74
2022-11-10T19:01:31.758Z,95.51
2022-11-10T19:04:18.664Z,95.63
2022-11-10T19:07:06.978Z,95.57
2022-11-10T19:09:54.939Z,95.53
2022-11-10T19:12:41.760Z,95.72
2022-11-10T19:15:28.903Z,95.63
2022-11-10T19:18:16.442Z,95.61
2022-11-10T19:21:14.701Z,95.23
2022-11-10T19:24:01.428Z,95.67
2022-11-10T19:26:52.651Z,95.84
2022-11-10T19:29:39.765Z,95.55
2022-11-10T19:32:26.727Z,95.63
2022-11-10T19:35:14.365Z,95.35
2022-11-10T19:38:01.264Z,95.42
2022-11-10T19:40:48.275Z,95.56
2022-11-10T19:43:35.642Z,95.73
2022-11-10T19:46:28.243Z,95.55
2022-11-10T19:49:15.150Z,95.61
2022-11-10T19:52:01.981Z,95.76
2022-11-10T19:54:49.108Z,95.65
2022-11-10T19:57:35.975Z,95.83
2022-11-10T20:00:23.123Z,95.73
2022-11-10T20:03:12.233Z,95.93
2022-11-10T20:06:01.804Z,95.78
2022-11-10T20:08:50.488Z,96.04
2022-11-10T20:11:37.379Z,95.57
2022-11-10T20:14:24.376Z,95.82
2022-11-10T20:17:11.634Z,95.80
2022-11-10T20:19:58.527Z,95.64
2022-11-10T20:22:45.667Z,96.01
2022-11-10T20:25:33.348Z,95.80
2022-11-10T20:28:20.218Z,96.11
2022-11-10T20:31:10.916Z,96.07
2022-11-10T20:33:57.956Z,95.73
2022-11-10T20:36:45.129Z,95.88
2022-11-10T20:39:32.232Z,95.80
2022-11-10T20:42:19.271Z,95.98
2022-11-10T20:45:07.199Z,95.89
2022-11-10T20:47:54.100Z,95.96
2022-11-10T20:50:41.815Z,95.93
2022-11-10T20:53:31.999Z,95.67
2022-11-10T20:56:19.457Z,96.23
2022-11-10T20:59:06.496Z,96.19
2022-11-10T21:01:53.630Z,96.05
2022-11-10T21:04:43.174Z,96.08
2022-11-10T21:07:32.385Z,96.07
2022-11-10T21:10:19.746Z,96.00
2022-11-10T21:13:06.926Z,95.99
2022-11-10T21:15:59.237Z,96.04
2022-11-10T21:18:46.394Z,96.00
2022-11-10T21:21:36.337Z,95.95
2022-11-10T21:24:23.726Z,95.95
2022-11-10T21:27:12.989Z,95.98
2022-11-10T21:30:00.437Z,95.82
2022-11-10T21:32:47.435Z,96.29
2022-11-10T21:35:38.292Z,95.75
2022-11-10T21:38:25.170Z,96.18
2022-11-10T21:41:12.658Z,96.46
2022-11-10T21:43:59.887Z,96.40
2022-11-10T21:46:47.569Z,96.00
2022-11-10T21:49:35.369Z,95.89
2022-11-10T21:52:22.457Z,96.01
2022-11-10T21:55:10.504Z,96.33
2022-11-10T21:58:01.349Z,96.26
2022-11-10T22:00:48.280Z,96.07
2022-11-10T22:03:36.031Z,95.98
2022-11-10T22:06:23.715Z,96.20
2022-11-10T22:09:10.984Z,95.91
2022-11-10T22:12:16.478Z,96.43
2022-11-10T22:15:21.923Z,96.18
2022-11-10T22:18:32.775Z,96.37
2022-11-10T22:21:20.152Z,96.23
2022-11-10T22:24:27.381Z,96.39
2022-11-10T22:27:14.787Z,96.43
2022-11-10T22:30:01.979Z,96.30
2022-11-10T22:32:49.229Z,96.29
2022-11-10T22:35:45.203Z,96.13
2022-11-10T22:38:35.827Z,96.21
2022-11-10T22:41:41.327Z,96.21
2022-11-10T22:44:28.734Z,95.74
2022-11-10T22:47:16.185Z,96.38
2022-11-10T22:50:03.431Z,95.97
2022-11-10T22:52:50.462Z,96.32
2022-11-10T22:55:37.268Z,96.16
2022-11-10T22:58:24.430Z,96.40
2022-11-10T23:01:12.893Z,96.16
2022-11-10T23:04:01.184Z,96.38
2022-11-10T23:06:49.101Z,96.71
2022-11-10T23:09:36.253Z,96.32
2022-11-10T23:12:23.105Z,96.29
2022-11-10T23:15:10.546Z,95.98
2022-11-10T23:18:01.108Z,96.36
2022-11-10T23:20:50.166Z,96.44
2022-11-10T23:23:39.438Z,96.44
2022-11-10T23:26:30.710Z,96.32
2022-11-10T23:29:18.043Z,96.35
2022-11-10T23:32:05.145Z,96.17
2022-11-10T23:34:52.455Z,96.42
2022-11-10T23:37:39.957Z,96.39
2022-11-10T23:40:27.006Z,96.30
2022-11-10T23:43:14.146Z,96.34
2022-11-10T23:46:08.796Z,96.18
2022-11-10T23:48:55.624Z,96.52
2022-11-10T23:51:42.913Z,96.71
2022-11-10T23:54:30.061Z,96.09
2022-11-10T23:57:17.089Z,96.38
